sensor_id;sensor_type;location;lat;lon;timestamp;P1;durP1;ratioP1;P2;durP2;ratioP2
11935;SDS011;6027;48.576;9.180;2022-11-09T00:01:28;7.20;;;4.78;;
11935;SDS011;6027;48.576;9.180;2022-11-09T00:03:58;4.95;;;4.45;;
11935;SDS011;6027;48.576;9.180;2022-11-09T00:06:26;5.72;;;4.32;;
11935;SDS011;6027;48.576;9.180;2022-11-09T00:08:52;5.45;;;4.50;;
11935;SDS011;6027;48.576;9.180;2022-11-09T00:11:18;6.97;;;4.30;;
11935;SDS011;6027;48.576;9.180;2022-11-09T00:13:44;8.18;;;5.10;;
11935;SDS011;6027;48.576;9.180;2022-11-09T00:16:12;7.32;;;4.68;;
11935;SDS011;6027;48.576;9.180;2022-11-09T00:18:39;4.88;;;3.90;;
11935;SDS011;6027;48.576;9.180;2022-11-09T00:21:15;5.60;;;4.30;;
11935;SDS011;6027;48.576;9.180;2022-11-09T00:23:43;4.90;;;4.10;;
11935;SDS011;6027;48.576;9.180;2022-11-09T00:26:09;9.20;;;4.30;;
11935;SDS011;6027;48.576;9.180;2022-11-09T00:28:36;6.95;;;4.07;;
11935;SDS011;6027;48.576;9.180;2022-11-09T00:31:02;5.97;;;4.82;;
11935;SDS011;6027;48.576;9.180;2022-11-09T00:33:30;5.72;;;4.20;;
11935;SDS011;6027;48.576;9.180;2022-11-09T00:35:55;8.10;;;4.32;;
11935;SDS011;6027;48.576;9.180;2022-11-09T00:38:21;6.07;;;4.30;;
11935;SDS011;6027;48.576;9.180;2022-11-09T00:40:47;6.80;;;4.80;;
11935;SDS011;6027;48.576;9.180;2022-11-09T00:43:12;4.68;;;4.20;;
11935;SDS011;6027;48.576;9.180;2022-11-09T00:45:38;4.78;;;4.22;;
11935;SDS011;6027;48.576;9.180;2022-11-09T00:48:05;8.07;;;4.53;;
11935;SDS011;6027;48.576;9.180;2022-11-09T00:50:31;6.95;;;4.85;;
11935;SDS011;6027;48.576;9.180;2022-11-09T00:52:57;6.25;;;4.55;;
11935;SDS011;6027;48.576;9.180;2022-11-09T00:55:22;8.52;;;4.75;;
11935;SDS011;6027;48.576;9.180;2022-11-09T00:57:48;5.97;;;4.88;;
11935;SDS011;6027;48.576;9.180;2022-11-09T01:00:18;5.88;;;4.40;;
11935;SDS011;6027;48.576;9.180;2022-11-09T01:02:45;5.78;;;4.82;;
11935;SDS011;6027;48.576;9.180;2022-11-09T01:05:11;8.07;;;5.60;;
11935;SDS011;6027;48.576;9.180;2022-11-09T01:07:37;6.38;;;4.82;;
11935;SDS011;6027;48.576;9.180;2022-11-09T01:10:04;5.38;;;4.43;;
11935;SDS011;6027;48.576;9.180;2022-11-09T01:12:30;7.57;;;4.78;;
11935;SDS011;6027;48.576;9.180;2022-11-09T01:14:56;5.90;;;4.75;;
11935;SDS011;6027;48.576;9.180;2022-11-09T01:17:21;5.65;;;4.47;;
11935;SDS011;6027;48.576;9.180;2022-11-09T01:19:48;8.30;;;5.10;;
11935;SDS011;6027;48.576;9.180;2022-11-09T01:22:13;7.63;;;4.97;;
11935;SDS011;6027;48.576;9.180;2022-11-09T01:24:39;8.80;;;4.85;;
11935;SDS011;6027;48.576;9.180;2022-11-09T01:27:05;7.05;;;4.68;;
11935;SDS011;6027;48.576;9.180;2022-11-09T01:29:30;5.28;;;4.20;;
11935;SDS011;6027;48.576;9.180;2022-11-09T01:31:55;5.57;;;4.05;;
11935;SDS011;6027;48.576;9.180;2022-11-09T01:34:21;4.97;;;4.30;;
11935;SDS011;6027;48.576;9.180;2022-11-09T01:41:50;4.10;;;3.38;;
11935;SDS011;6027;48.576;9.180;2022-11-09T01:44:17;4.43;;;3.75;;
11935;SDS011;6027;48.576;9.180;2022-11-09T01:49:18;5.85;;;3.60;;
11935;SDS011;6027;48.576;9.180;2022-11-09T01:51:52;4.97;;;3.38;;
11935;SDS011;6027;48.576;9.180;2022-11-09T01:54:24;5.50;;;3.65;;
11935;SDS011;6027;48.576;9.180;2022-11-09T01:56:53;4.13;;;3.55;;
11935;SDS011;6027;48.576;9.180;2022-11-09T01:59:24;6.00;;;4.00;;
11935;SDS011;6027;48.576;9.180;2022-11-09T02:01:52;4.45;;;3.38;;
11935;SDS011;6027;48.576;9.180;2022-11-09T02:04:25;4.03;;;3.40;;
11935;SDS011;6027;48.576;9.180;2022-11-09T02:07:02;4.13;;;3.38;;
11935;SDS011;6027;48.576;9.180;2022-11-09T02:10:30;5.18;;;2.92;;
11935;SDS011;6027;48.576;9.180;2022-11-09T02:12:36;5.47;;;3.50;;
11935;SDS011;6027;48.576;9.180;2022-11-09T02:15:02;4.18;;;3.40;;
11935;SDS011;6027;48.576;9.180;2022-11-09T02:17:31;4.78;;;3.53;;
11935;SDS011;6027;48.576;9.180;2022-11-09T02:19:56;6.60;;;3.33;;
11935;SDS011;6027;48.576;9.180;2022-11-09T02:22:23;5.78;;;3.28;;
11935;SDS011;6027;48.576;9.180;2022-11-09T02:24:48;4.25;;;3.17;;
11935;SDS011;6027;48.576;9.180;2022-11-09T02:27:14;6.03;;;3.22;;
11935;SDS011;6027;48.576;9.180;2022-11-09T02:29:40;5.15;;;3.45;;
11935;SDS011;6027;48.576;9.180;2022-11-09T02:32:11;4.85;;;3.20;;
11935;SDS011;6027;48.576;9.180;2022-11-09T02:34:40;4.43;;;3.17;;
11935;SDS011;6027;48.576;9.180;2022-11-09T02:37:06;4.25;;;2.92;;
11935;SDS011;6027;48.576;9.180;2022-11-09T02:39:31;3.15;;;2.65;;
11935;SDS011;6027;48.576;9.180;2022-11-09T02:42:01;2.95;;;2.38;;
11935;SDS011;6027;48.576;9.180;2022-11-09T02:44:32;3.47;;;2.38;;
11935;SDS011;6027;48.576;9.180;2022-11-09T02:47:00;3.78;;;2.78;;
11935;SDS011;6027;48.576;9.180;2022-11-09T02:49:26;2.63;;;2.25;;
11935;SDS011;6027;48.576;9.180;2022-11-09T02:51:51;2.50;;;2.20;;
11935;SDS011;6027;48.576;9.180;2022-11-09T02:54:16;2.58;;;2.33;;
11935;SDS011;6027;48.576;9.180;2022-11-09T02:56:42;3.55;;;2.40;;
11935;SDS011;6027;48.576;9.180;2022-11-09T02:59:07;3.53;;;2.42;;
11935;SDS011;6027;48.576;9.180;2022-11-09T03:01:33;4.35;;;2.42;;
11935;SDS011;6027;48.576;9.180;2022-11-09T03:03:58;4.07;;;2.13;;
11935;SDS011;6027;48.576;9.180;2022-11-09T03:06:24;2.83;;;2.08;;
11935;SDS011;6027;48.576;9.180;2022-11-09T03:09:05;2.60;;;1.77;;
11935;SDS011;6027;48.576;9.180;2022-11-09T03:11:33;2.90;;;1.95;;
11935;SDS011;6027;48.576;9.180;2022-11-09T03:13:59;2.47;;;2.00;;
11935;SDS011;6027;48.576;9.180;2022-11-09T03:16:25;2.67;;;1.80;;
11935;SDS011;6027;48.576;9.180;2022-11-09T03:18:51;3.08;;;1.95;;
11935;SDS011;6027;48.576;9.180;2022-11-09T03:21:16;2.20;;;1.70;;
11935;SDS011;6027;48.576;9.180;2022-11-09T03:23:42;2.10;;;1.65;;
11935;SDS011;6027;48.576;9.180;2022-11-09T03:26:08;2.53;;;1.92;;
11935;SDS011;6027;48.576;9.180;2022-11-09T03:28:34;3.22;;;1.95;;
11935;SDS011;6027;48.576;9.180;2022-11-09T03:30:59;3.03;;;1.83;;
11935;SDS011;6027;48.576;9.180;2022-11-09T03:33:25;3.63;;;2.13;;
11935;SDS011;6027;48.576;9.180;2022-11-09T03:35:50;3.78;;;1.90;;
11935;SDS011;6027;48.576;9.180;2022-11-09T03:38:16;3.75;;;2.25;;
11935;SDS011;6027;48.576;9.180;2022-11-09T03:40:42;3.58;;;2.08;;
11935;SDS011;6027;48.576;9.180;2022-11-09T03:43:07;3.50;;;2.10;;
11935;SDS011;6027;48.576;9.180;2022-11-09T03:45:33;3.65;;;2.28;;
11935;SDS011;6027;48.576;9.180;2022-11-09T03:47:58;3.88;;;2.20;;
11935;SDS011;6027;48.576;9.180;2022-11-09T03:50:27;2.97;;;2.38;;
11935;SDS011;6027;48.576;9.180;2022-11-09T03:52:54;6.13;;;2.20;;
11935;SDS011;6027;48.576;9.180;2022-11-09T03:55:21;2.80;;;2.33;;
11935;SDS011;6027;48.576;9.180;2022-11-09T03:57:46;5.50;;;2.30;;
11935;SDS011;6027;48.576;9.180;2022-11-09T04:00:13;8.70;;;2.58;;
11935;SDS011;6027;48.576;9.180;2022-11-09T04:02:40;5.03;;;2.38;;
11935;SDS011;6027;48.576;9.180;2022-11-09T04:05:06;4.90;;;2.40;;
11935;SDS011;6027;48.576;9.180;2022-11-09T04:07:32;4.13;;;2.40;;
11935;SDS011;6027;48.576;9.180;2022-11-09T04:09:57;4.07;;;3.45;;
11935;SDS011;6027;48.576;9.180;2022-11-09T04:12:23;3.58;;;2.95;;
11935;SDS011;6027;48.576;9.180;2022-11-09T04:14:48;5.40;;;3.17;;
11935;SDS011;6027;48.576;9.180;2022-11-09T04:17:14;5.78;;;3.85;;
11935;SDS011;6027;48.576;9.180;2022-11-09T04:19:39;5.85;;;4.80;;
11935;SDS011;6027;48.576;9.180;2022-11-09T04:22:05;6.18;;;4.75;;
11935;SDS011;6027;48.576;9.180;2022-11-09T04:24:30;6.32;;;4.05;;
11935;SDS011;6027;48.576;9.180;2022-11-09T04:26:56;8.85;;;4.25;;
11935;SDS011;6027;48.576;9.180;2022-11-09T04:29:21;9.20;;;4.60;;
11935;SDS011;6027;48.576;9.180;2022-11-09T04:31:47;7.40;;;4.72;;
11935;SDS011;6027;48.576;9.180;2022-11-09T04:34:13;6.57;;;4.68;;
11935;SDS011;6027;48.576;9.180;2022-11-09T04:36:39;6.32;;;4.55;;
11935;SDS011;6027;48.576;9.180;2022-11-09T04:39:04;7.88;;;5.32;;
11935;SDS011;6027;48.576;9.180;2022-11-09T04:41:30;6.13;;;5.07;;
11935;SDS011;6027;48.576;9.180;2022-11-09T04:43:55;8.18;;;4.32;;
11935;SDS011;6027;48.576;9.180;2022-11-09T04:46:21;7.85;;;4.82;;
11935;SDS011;6027;48.576;9.180;2022-11-09T04:48:46;5.57;;;4.93;;
11935;SDS011;6027;48.576;9.180;2022-11-09T04:51:11;7.60;;;4.80;;
11935;SDS011;6027;48.576;9.180;2022-11-09T04:53:37;6.47;;;4.82;;
11935;SDS011;6027;48.576;9.180;2022-11-09T04:56:03;8.43;;;4.82;;
11935;SDS011;6027;48.576;9.180;2022-11-09T04:58:30;7.55;;;5.53;;
11935;SDS011;6027;48.576;9.180;2022-11-09T05:01:00;7.13;;;5.90;;
11935;SDS011;6027;48.576;9.180;2022-11-09T05:03:30;7.53;;;6.18;;
11935;SDS011;6027;48.576;9.180;2022-11-09T05:05:56;8.73;;;5.50;;
11935;SDS011;6027;48.576;9.180;2022-11-09T05:08:21;7.35;;;5.70;;
11935;SDS011;6027;48.576;9.180;2022-11-09T05:10:47;7.05;;;6.32;;
11935;SDS011;6027;48.576;9.180;2022-11-09T05:13:12;10.65;;;9.65;;
11935;SDS011;6027;48.576;9.180;2022-11-09T05:15:39;5.72;;;4.72;;
11935;SDS011;6027;48.576;9.180;2022-11-09T05:18:04;5.55;;;4.88;;
11935;SDS011;6027;48.576;9.180;2022-11-09T05:20:31;5.47;;;4.80;;
11935;SDS011;6027;48.576;9.180;2022-11-09T05:22:57;5.32;;;4.63;;
11935;SDS011;6027;48.576;9.180;2022-11-09T05:25:41;5.85;;;4.82;;
11935;SDS011;6027;48.576;9.180;2022-11-09T05:28:07;5.72;;;5.03;;
11935;SDS011;6027;48.576;9.180;2022-11-09T05:30:32;7.85;;;5.15;;
11935;SDS011;6027;48.576;9.180;2022-11-09T05:32:58;9.05;;;5.30;;
11935;SDS011;6027;48.576;9.180;2022-11-09T05:35:23;7.53;;;5.72;;
11935;SDS011;6027;48.576;9.180;2022-11-09T05:37:49;6.80;;;5.50;;
11935;SDS011;6027;48.576;9.180;2022-11-09T05:40:16;5.72;;;4.63;;
11935;SDS011;6027;48.576;9.180;2022-11-09T05:42:42;7.18;;;5.15;;
11935;SDS011;6027;48.576;9.180;2022-11-09T05:45:09;7.22;;;4.90;;
11935;SDS011;6027;48.576;9.180;2022-11-09T05:47:39;8.40;;;5.22;;
11935;SDS011;6027;48.576;9.180;2022-11-09T05:50:08;7.38;;;4.50;;
11935;SDS011;6027;48.576;9.180;2022-11-09T05:52:35;9.60;;;6.80;;
11935;SDS011;6027;48.576;9.180;2022-11-09T05:55:01;7.85;;;6.47;;
11935;SDS011;6027;48.576;9.180;2022-11-09T05:57:27;7.47;;;6.32;;
11935;SDS011;6027;48.576;9.180;2022-11-09T05:59:53;7.72;;;6.50;;
11935;SDS011;6027;48.576;9.180;2022-11-09T06:02:18;8.73;;;6.50;;
11935;SDS011;6027;48.576;9.180;2022-11-09T06:04:43;7.88;;;6.65;;
11935;SDS011;6027;48.576;9.180;2022-11-09T06:07:09;9.40;;;7.38;;
11935;SDS011;6027;48.576;9.180;2022-11-09T06:09:34;10.18;;;6.45;;
11935;SDS011;6027;48.576;9.180;2022-11-09T06:12:00;9.00;;;7.28;;
11935;SDS011;6027;48.576;9.180;2022-11-09T06:14:25;10.18;;;6.90;;
11935;SDS011;6027;48.576;9.180;2022-11-09T06:16:51;7.53;;;6.30;;
11935;SDS011;6027;48.576;9.180;2022-11-09T06:19:16;7.25;;;5.90;;
11935;SDS011;6027;48.576;9.180;2022-11-09T06:21:42;7.60;;;5.60;;
11935;SDS011;6027;48.576;9.180;2022-11-09T06:24:08;8.55;;;6.88;;
11935;SDS011;6027;48.576;9.180;2022-11-09T06:26:34;9.30;;;6.25;;
11935;SDS011;6027;48.576;9.180;2022-11-09T06:29:00;7.70;;;5.13;;
11935;SDS011;6027;48.576;9.180;2022-11-09T06:31:26;7.10;;;5.13;;
11935;SDS011;6027;48.576;9.180;2022-11-09T06:33:53;7.95;;;6.90;;
11935;SDS011;6027;48.576;9.180;2022-11-09T06:36:18;8.25;;;5.95;;
11935;SDS011;6027;48.576;9.180;2022-11-09T06:38:47;7.30;;;5.30;;
11935;SDS011;6027;48.576;9.180;2022-11-09T06:41:14;8.05;;;4.97;;
11935;SDS011;6027;48.576;9.180;2022-11-09T06:43:40;8.20;;;4.85;;
11935;SDS011;6027;48.576;9.180;2022-11-09T06:46:05;8.45;;;4.25;;
11935;SDS011;6027;48.576;9.180;2022-11-09T06:48:31;4.78;;;3.90;;
11935;SDS011;6027;48.576;9.180;2022-11-09T06:51:00;4.43;;;3.90;;
11935;SDS011;6027;48.576;9.180;2022-11-09T06:53:27;6.63;;;4.20;;
11935;SDS011;6027;48.576;9.180;2022-11-09T06:56:01;5.20;;;4.22;;
11935;SDS011;6027;48.576;9.180;2022-11-09T06:58:28;10.23;;;4.45;;
11935;SDS011;6027;48.576;9.180;2022-11-09T07:00:54;8.77;;;5.50;;
11935;SDS011;6027;48.576;9.180;2022-11-09T07:03:20;7.82;;;6.53;;
11935;SDS011;6027;48.576;9.180;2022-11-09T07:05:46;9.70;;;6.57;;
11935;SDS011;6027;48.576;9.180;2022-11-09T07:08:13;6.65;;;5.50;;
11935;SDS011;6027;48.576;9.180;2022-11-09T07:10:39;6.45;;;5.70;;
11935;SDS011;6027;48.576;9.180;2022-11-09T07:13:06;5.50;;;4.65;;
11935;SDS011;6027;48.576;9.180;2022-11-09T07:15:32;6.07;;;5.07;;
11935;SDS011;6027;48.576;9.180;2022-11-09T07:17:58;9.95;;;8.18;;
11935;SDS011;6027;48.576;9.180;2022-11-09T07:20:25;8.77;;;6.75;;
11935;SDS011;6027;48.576;9.180;2022-11-09T07:22:52;8.32;;;6.47;;
11935;SDS011;6027;48.576;9.180;2022-11-09T07:25:17;6.13;;;5.47;;
11935;SDS011;6027;48.576;9.180;2022-11-09T07:27:43;10.63;;;5.53;;
11935;SDS011;6027;48.576;9.180;2022-11-09T07:30:09;8.38;;;5.38;;
11935;SDS011;6027;48.576;9.180;2022-11-09T07:32:35;11.95;;;5.45;;
11935;SDS011;6027;48.576;9.180;2022-11-09T07:35:01;6.95;;;4.85;;
11935;SDS011;6027;48.576;9.180;2022-11-09T07:37:28;7.88;;;5.20;;
11935;SDS011;6027;48.576;9.180;2022-11-09T07:39:54;8.80;;;5.65;;
11935;SDS011;6027;48.576;9.180;2022-11-09T07:42:20;6.55;;;4.22;;
11935;SDS011;6027;48.576;9.180;2022-11-09T07:44:45;4.20;;;3.17;;
11935;SDS011;6027;48.576;9.180;2022-11-09T07:47:11;5.78;;;3.33;;
11935;SDS011;6027;48.576;9.180;2022-11-09T07:49:36;3.60;;;3.15;;
11935;SDS011;6027;48.576;9.180;2022-11-09T07:52:02;4.68;;;3.05;;
11935;SDS011;6027;48.576;9.180;2022-11-09T07:54:28;3.50;;;3.20;;
11935;SDS011;6027;48.576;9.180;2022-11-09T07:56:53;3.90;;;3.50;;
11935;SDS011;6027;48.576;9.180;2022-11-09T07:59:19;4.18;;;2.83;;
11935;SDS011;6027;48.576;9.180;2022-11-09T08:01:44;4.05;;;2.92;;
11935;SDS011;6027;48.576;9.180;2022-11-09T08:04:10;4.55;;;3.13;;
11935;SDS011;6027;48.576;9.180;2022-11-09T08:06:35;4.22;;;3.10;;
11935;SDS011;6027;48.576;9.180;2022-11-09T08:09:00;4.25;;;2.92;;
11935;SDS011;6027;48.576;9.180;2022-11-09T08:11:27;3.95;;;2.70;;
11935;SDS011;6027;48.576;9.180;2022-11-09T08:13:53;3.85;;;2.78;;
11935;SDS011;6027;48.576;9.180;2022-11-09T08:16:19;3.67;;;2.78;;
11935;SDS011;6027;48.576;9.180;2022-11-09T08:18:45;5.40;;;2.90;;
11935;SDS011;6027;48.576;9.180;2022-11-09T08:21:10;3.70;;;3.17;;
11935;SDS011;6027;48.576;9.180;2022-11-09T08:23:36;3.40;;;2.97;;
11935;SDS011;6027;48.576;9.180;2022-11-09T08:26:02;5.10;;;3.13;;
11935;SDS011;6027;48.576;9.180;2022-11-09T08:28:29;4.43;;;3.05;;
11935;SDS011;6027;48.576;9.180;2022-11-09T08:30:56;6.07;;;3.20;;
11935;SDS011;6027;48.576;9.180;2022-11-09T08:33:24;3.75;;;3.40;;
11935;SDS011;6027;48.576;9.180;2022-11-09T08:35:51;4.15;;;2.83;;
11935;SDS011;6027;48.576;9.180;2022-11-09T08:38:17;3.65;;;3.35;;
11935;SDS011;6027;48.576;9.180;2022-11-09T08:40:42;4.07;;;3.67;;
11935;SDS011;6027;48.576;9.180;2022-11-09T08:43:09;5.30;;;4.15;;
11935;SDS011;6027;48.576;9.180;2022-11-09T08:45:36;6.82;;;4.13;;
11935;SDS011;6027;48.576;9.180;2022-11-09T08:48:03;6.50;;;4.20;;
11935;SDS011;6027;48.576;9.180;2022-11-09T08:50:30;5.20;;;3.22;;
11935;SDS011;6027;48.576;9.180;2022-11-09T08:52:56;3.95;;;2.83;;
11935;SDS011;6027;48.576;9.180;2022-11-09T08:55:22;4.22;;;3.15;;
11935;SDS011;6027;48.576;9.180;2022-11-09T08:57:51;4.70;;;3.80;;
11935;SDS011;6027;48.576;9.180;2022-11-09T09:00:22;4.10;;;3.47;;
11935;SDS011;6027;48.576;9.180;2022-11-09T09:02:47;4.72;;;3.65;;
11935;SDS011;6027;48.576;9.180;2022-11-09T09:05:13;7.38;;;4.53;;
11935;SDS011;6027;48.576;9.180;2022-11-09T09:07:39;8.07;;;4.38;;
11935;SDS011;6027;48.576;9.180;2022-11-09T09:10:04;5.78;;;3.90;;
11935;SDS011;6027;48.576;9.180;2022-11-09T09:12:30;5.28;;;3.67;;
11935;SDS011;6027;48.576;9.180;2022-11-09T09:14:56;3.60;;;2.78;;
11935;SDS011;6027;48.576;9.180;2022-11-09T09:17:21;2.40;;;2.20;;
11935;SDS011;6027;48.576;9.180;2022-11-09T09:19:47;3.28;;;2.33;;
11935;SDS011;6027;48.576;9.180;2022-11-09T09:22:12;4.47;;;2.55;;
11935;SDS011;6027;48.576;9.180;2022-11-09T09:24:38;2.00;;;1.75;;
11935;SDS011;6027;48.576;9.180;2022-11-09T09:27:03;3.00;;;2.00;;
11935;SDS011;6027;48.576;9.180;2022-11-09T09:29:29;2.78;;;2.50;;
11935;SDS011;6027;48.576;9.180;2022-11-09T09:31:54;4.78;;;2.50;;
11935;SDS011;6027;48.576;9.180;2022-11-09T09:34:20;3.38;;;2.00;;
11935;SDS011;6027;48.576;9.180;2022-11-09T09:36:45;3.33;;;3.00;;
11935;SDS011;6027;48.576;9.180;2022-11-09T09:39:10;3.95;;;2.83;;
11935;SDS011;6027;48.576;9.180;2022-11-09T09:41:37;2.50;;;2.10;;
11935;SDS011;6027;48.576;9.180;2022-11-09T09:44:11;4.00;;;2.00;;
11935;SDS011;6027;48.576;9.180;2022-11-09T09:46:46;4.07;;;2.20;;
11935;SDS011;6027;48.576;9.180;2022-11-09T09:49:22;4.05;;;2.90;;
11935;SDS011;6027;48.576;9.180;2022-11-09T09:54:40;3.40;;;2.25;;
11935;SDS011;6027;48.576;9.180;2022-11-09T09:57:16;2.53;;;2.33;;
11935;SDS011;6027;48.576;9.180;2022-11-09T09:59:47;3.53;;;2.25;;
11935;SDS011;6027;48.576;9.180;2022-11-09T10:04:45;4.57;;;3.05;;
11935;SDS011;6027;48.576;9.180;2022-11-09T10:07:26;2.80;;;2.60;;
11935;SDS011;6027;48.576;9.180;2022-11-09T10:23:41;4.45;;;3.00;;
11935;SDS011;6027;48.576;9.180;2022-11-09T10:26:17;4.75;;;2.60;;
11935;SDS011;6027;48.576;9.180;2022-11-09T10:28:50;6.55;;;3.85;;
11935;SDS011;6027;48.576;9.180;2022-11-09T10:31:22;3.35;;;2.83;;
11935;SDS011;6027;48.576;9.180;2022-11-09T10:33:58;3.08;;;2.30;;
11935;SDS011;6027;48.576;9.180;2022-11-09T10:36:35;3.63;;;2.38;;
11935;SDS011;6027;48.576;9.180;2022-11-09T10:39:07;2.70;;;2.10;;
11935;SDS011;6027;48.576;9.180;2022-11-09T10:44:15;3.35;;;2.50;;
11935;SDS011;6027;48.576;9.180;2022-11-09T10:47:01;2.97;;;2.20;;
11935;SDS011;6027;48.576;9.180;2022-11-09T10:49:36;5.13;;;2.80;;
11935;SDS011;6027;48.576;9.180;2022-11-09T10:52:03;4.10;;;3.55;;
11935;SDS011;6027;48.576;9.180;2022-11-09T10:54:31;4.45;;;3.58;;
11935;SDS011;6027;48.576;9.180;2022-11-09T10:59:53;2.30;;;2.10;;
11935;SDS011;6027;48.576;9.180;2022-11-09T11:07:30;2.90;;;1.70;;
11935;SDS011;6027;48.576;9.180;2022-11-09T11:09:57;2.47;;;1.80;;
11935;SDS011;6027;48.576;9.180;2022-11-09T11:12:39;2.33;;;1.83;;
11935;SDS011;6027;48.576;9.180;2022-11-09T11:17:34;2.70;;;1.70;;
11935;SDS011;6027;48.576;9.180;2022-11-09T11:22:48;1.77;;;1.58;;
11935;SDS011;6027;48.576;9.180;2022-11-09T11:25:18;1.83;;;1.65;;
11935;SDS011;6027;48.576;9.180;2022-11-09T11:27:47;1.98;;;1.50;;
11935;SDS011;6027;48.576;9.180;2022-11-09T11:30:50;1.75;;;1.60;;
11935;SDS011;6027;48.576;9.180;2022-11-09T11:33:15;1.58;;;1.48;;
11935;SDS011;6027;48.576;9.180;2022-11-09T11:36:05;3.08;;;1.85;;
11935;SDS011;6027;48.576;9.180;2022-11-09T11:49:35;3.20;;;1.77;;
11935;SDS011;6027;48.576;9.180;2022-11-09T11:52:21;2.03;;;1.83;;
11935;SDS011;6027;48.576;9.180;2022-11-09T11:55:15;2.72;;;1.75;;
11935;SDS011;6027;48.576;9.180;2022-11-09T11:57:49;3.53;;;2.05;;
11935;SDS011;6027;48.576;9.180;2022-11-09T12:00:26;2.15;;;1.80;;
11935;SDS011;6027;48.576;9.180;2022-11-09T12:08:32;2.60;;;1.58;;
11935;SDS011;6027;48.576;9.180;2022-11-09T12:30:19;2.30;;;1.50;;
11935;SDS011;6027;48.576;9.180;2022-11-09T12:32:58;2.90;;;1.38;;
11935;SDS011;6027;48.576;9.180;2022-11-09T12:35:30;2.03;;;1.40;;
11935;SDS011;6027;48.576;9.180;2022-11-09T12:40:43;1.30;;;1.20;;
11935;SDS011;6027;48.576;9.180;2022-11-09T12:43:17;2.13;;;1.45;;
11935;SDS011;6027;48.576;9.180;2022-11-09T12:45:47;2.40;;;1.35;;
11935;SDS011;6027;48.576;9.180;2022-11-09T12:48:19;1.65;;;1.40;;
11935;SDS011;6027;48.576;9.180;2022-11-09T12:50:45;1.50;;;1.20;;
11935;SDS011;6027;48.576;9.180;2022-11-09T12:53:11;1.67;;;1.30;;
11935;SDS011;6027;48.576;9.180;2022-11-09T12:58:22;1.15;;;1.05;;
11935;SDS011;6027;48.576;9.180;2022-11-09T13:03:53;2.65;;;1.30;;
11935;SDS011;6027;48.576;9.180;2022-11-09T13:06:25;1.52;;;1.10;;
11935;SDS011;6027;48.576;9.180;2022-11-09T13:08:56;1.40;;;1.20;;
11935;SDS011;6027;48.576;9.180;2022-11-09T13:16:57;1.00;;;0.90;;
11935;SDS011;6027;48.576;9.180;2022-11-09T13:38:21;2.17;;;1.60;;
11935;SDS011;6027;48.576;9.180;2022-11-09T13:40:52;2.03;;;1.50;;
11935;SDS011;6027;48.576;9.180;2022-11-09T13:43:21;3.05;;;1.80;;
11935;SDS011;6027;48.576;9.180;2022-11-09T13:45:59;4.47;;;2.55;;
11935;SDS011;6027;48.576;9.180;2022-11-09T13:48:37;4.03;;;2.50;;
11935;SDS011;6027;48.576;9.180;2022-11-09T13:58:58;3.53;;;1.80;;
11935;SDS011;6027;48.576;9.180;2022-11-09T14:01:45;4.15;;;1.80;;
11935;SDS011;6027;48.576;9.180;2022-11-09T14:04:27;2.85;;;2.10;;
11935;SDS011;6027;48.576;9.180;2022-11-09T14:07:04;3.58;;;2.60;;
11935;SDS011;6027;48.576;9.180;2022-11-09T14:15:13;3.17;;;2.20;;
11935;SDS011;6027;48.576;9.180;2022-11-09T14:20:33;2.83;;;1.50;;
11935;SDS011;6027;48.576;9.180;2022-11-09T14:23:13;2.65;;;1.70;;
11935;SDS011;6027;48.576;9.180;2022-11-09T14:25:43;1.70;;;1.50;;
11935;SDS011;6027;48.576;9.180;2022-11-09T14:28:18;2.97;;;1.70;;
11935;SDS011;6027;48.576;9.180;2022-11-09T14:30:46;1.63;;;1.52;;
11935;SDS011;6027;48.576;9.180;2022-11-09T14:33:29;2.45;;;1.50;;
11935;SDS011;6027;48.576;9.180;2022-11-09T14:35:58;5.28;;;2.70;;
11935;SDS011;6027;48.576;9.180;2022-11-09T14:40:59;3.80;;;3.45;;
11935;SDS011;6027;48.576;9.180;2022-11-09T14:43:26;5.63;;;3.00;;
11935;SDS011;6027;48.576;9.180;2022-11-09T14:45:57;2.42;;;2.22;;
11935;SDS011;6027;48.576;9.180;2022-11-09T14:48:24;2.78;;;2.30;;
11935;SDS011;6027;48.576;9.180;2022-11-09T14:50:50;5.78;;;3.50;;
11935;SDS011;6027;48.576;9.180;2022-11-09T14:53:25;3.50;;;3.20;;
11935;SDS011;6027;48.576;9.180;2022-11-09T14:55:54;3.78;;;3.30;;
11935;SDS011;6027;48.576;9.180;2022-11-09T14:58:22;7.22;;;6.15;;
11935;SDS011;6027;48.576;9.180;2022-11-09T15:01:05;7.50;;;5.97;;
11935;SDS011;6027;48.576;9.180;2022-11-09T15:03:33;10.82;;;7.80;;
11935;SDS011;6027;48.576;9.180;2022-11-09T15:06:06;10.32;;;8.32;;
11935;SDS011;6027;48.576;9.180;2022-11-09T15:08:35;11.10;;;7.35;;
11935;SDS011;6027;48.576;9.180;2022-11-09T15:11:04;15.63;;;9.35;;
11935;SDS011;6027;48.576;9.180;2022-11-09T15:13:35;6.47;;;4.38;;
11935;SDS011;6027;48.576;9.180;2022-11-09T15:16:03;6.82;;;3.17;;
11935;SDS011;6027;48.576;9.180;2022-11-09T15:18:30;24.88;;;17.10;;
11935;SDS011;6027;48.576;9.180;2022-11-09T15:21:12;30.10;;;22.40;;
11935;SDS011;6027;48.576;9.180;2022-11-09T15:24:04;17.30;;;14.43;;
11935;SDS011;6027;48.576;9.180;2022-11-09T15:26:34;7.13;;;4.13;;
11935;SDS011;6027;48.576;9.180;2022-11-09T15:32:23;3.47;;;3.17;;
11935;SDS011;6027;48.576;9.180;2022-11-09T15:34:51;3.65;;;2.47;;
11935;SDS011;6027;48.576;9.180;2022-11-09T15:39:53;6.22;;;2.47;;
11935;SDS011;6027;48.576;9.180;2022-11-09T15:42:20;2.03;;;1.83;;
11935;SDS011;6027;48.576;9.180;2022-11-09T15:44:49;2.65;;;2.10;;
11935;SDS011;6027;48.576;9.180;2022-11-09T15:47:20;2.35;;;2.15;;
11935;SDS011;6027;48.576;9.180;2022-11-09T15:49:48;3.65;;;2.78;;
11935;SDS011;6027;48.576;9.180;2022-11-09T15:52:13;2.95;;;2.60;;
11935;SDS011;6027;48.576;9.180;2022-11-09T15:54:45;4.35;;;3.92;;
11935;SDS011;6027;48.576;9.180;2022-11-09T15:57:20;4.32;;;3.75;;
11935;SDS011;6027;48.576;9.180;2022-11-09T15:59:48;4.32;;;3.72;;
11935;SDS011;6027;48.576;9.180;2022-11-09T16:02:15;4.40;;;3.80;;
11935;SDS011;6027;48.576;9.180;2022-11-09T16:04:43;3.17;;;2.78;;
11935;SDS011;6027;48.576;9.180;2022-11-09T16:07:08;5.43;;;4.03;;
11935;SDS011;6027;48.576;9.180;2022-11-09T16:09:38;4.40;;;4.00;;
11935;SDS011;6027;48.576;9.180;2022-11-09T16:12:05;5.88;;;3.85;;
11935;SDS011;6027;48.576;9.180;2022-11-09T16:14:31;6.93;;;5.20;;
11935;SDS011;6027;48.576;9.180;2022-11-09T16:16:58;7.50;;;6.03;;
11935;SDS011;6027;48.576;9.180;2022-11-09T16:19:23;7.85;;;6.15;;
11935;SDS011;6027;48.576;9.180;2022-11-09T16:21:52;5.80;;;5.20;;
11935;SDS011;6027;48.576;9.180;2022-11-09T16:24:19;5.10;;;4.07;;
11935;SDS011;6027;48.576;9.180;2022-11-09T16:26:45;6.47;;;4.03;;
11935;SDS011;6027;48.576;9.180;2022-11-09T16:29:11;6.00;;;4.13;;
11935;SDS011;6027;48.576;9.180;2022-11-09T16:31:36;6.53;;;4.97;;
11935;SDS011;6027;48.576;9.180;2022-11-09T16:34:02;6.50;;;4.57;;
11935;SDS011;6027;48.576;9.180;2022-11-09T16:36:28;6.70;;;4.15;;
11935;SDS011;6027;48.576;9.180;2022-11-09T16:38:54;7.95;;;4.32;;
11935;SDS011;6027;48.576;9.180;2022-11-09T16:41:22;6.38;;;4.60;;
11935;SDS011;6027;48.576;9.180;2022-11-09T16:43:49;7.60;;;4.00;;
11935;SDS011;6027;48.576;9.180;2022-11-09T16:46:21;6.55;;;4.82;;
11935;SDS011;6027;48.576;9.180;2022-11-09T16:48:48;6.15;;;5.43;;
11935;SDS011;6027;48.576;9.180;2022-11-09T16:51:13;5.18;;;4.13;;
11935;SDS011;6027;48.576;9.180;2022-11-09T16:53:39;4.68;;;3.88;;
11935;SDS011;6027;48.576;9.180;2022-11-09T16:56:04;6.50;;;5.35;;
11935;SDS011;6027;48.576;9.180;2022-11-09T16:58:30;5.97;;;5.35;;
11935;SDS011;6027;48.576;9.180;2022-11-09T17:00:55;5.40;;;4.45;;
11935;SDS011;6027;48.576;9.180;2022-11-09T17:03:21;7.35;;;5.95;;
11935;SDS011;6027;48.576;9.180;2022-11-09T17:05:46;6.45;;;5.82;;
11935;SDS011;6027;48.576;9.180;2022-11-09T17:08:12;4.18;;;3.75;;
11935;SDS011;6027;48.576;9.180;2022-11-09T17:10:42;5.50;;;4.00;;
11935;SDS011;6027;48.576;9.180;2022-11-09T17:13:09;4.63;;;3.60;;
11935;SDS011;6027;48.576;9.180;2022-11-09T17:15:40;6.95;;;4.05;;
11935;SDS011;6027;48.576;9.180;2022-11-09T17:18:10;5.32;;;3.60;;
11935;SDS011;6027;48.576;9.180;2022-11-09T17:20:43;4.85;;;3.42;;
11935;SDS011;6027;48.576;9.180;2022-11-09T17:23:17;7.10;;;4.18;;